Time;durP1;ratioP1;P1;durP2;ratioP2;P2;SDS_P1;SDS_P2;PMS_P1;PMS_P2;Temp;Humidity;BMP_temperature;BMP_pressure;BME280_temperature;BME280_humidity;BME280_pressure;Samples;Min_cycle;Max_cycle;Signal;HPM_P1;HPM_P2
2022/02/01 00:01:17;;;;;;;8.23;2.25;;;2.70;99.90;;;;;;6217114;23;20203;-60
2022/02/01 00:03:46;;;;;;;10.82;2.20;;;2.70;99.90;;;;;;6217504;23;20125;-61
2022/02/01 00:06:19;;;;;;;8.73;2.25;;;2.70;99.90;;;;;;6217373;23;20156;-62
2022/02/01 00:12:03;;;;;;;8.25;2.50;;;2.70;99.90;;;;;;6189142;23;20228;-60
2022/02/01 00:17:29;;;;;;;12.88;2.35;;;2.70;99.90;;;;;;6217499;23;20220;-60
2022/02/01 00:20:18;;;;;;;10.40;2.83;;;2.80;99.90;;;;;;6217174;23;20271;-59
2022/02/01 00:33:15;;;;;;;16.25;3.05;;;2.80;99.90;;;;;;6216992;23;20208;-60
2022/02/01 00:34:08;;;;;;;8.10;3.25;;;2.90;99.90;;;;;;6216634;23;20203;-61
2022/02/01 00:36:39;;;;;;;16.52;3.80;;;2.90;99.90;;;;;;6216844;23;20133;-59
2022/02/01 00:39:09;;;;;;;16.73;4.38;;;2.90;99.90;;;;;;6216949;23;20220;-61
2022/02/01 00:41:40;;;;;;;12.52;4.72;;;2.90;99.90;;;;;;6216420;23;20214;-61
2022/02/01 00:44:05;;;;;;;13.23;4.90;;;2.90;99.90;;;;;;6216501;23;20393;-61
2022/02/01 00:46:31;;;;;;;15.70;5.05;;;2.90;99.90;;;;;;6216429;23;20183;-61
2022/02/01 00:48:56;;;;;;;11.93;5.07;;;2.90;99.90;;;;;;6216799;23;20141;-60
2022/02/01 00:51:22;;;;;;;11.85;4.93;;;2.90;99.90;;;;;;6216194;23;20439;-60
2022/02/01 00:53:47;;;;;;;15.48;5.18;;;2.90;99.90;;;;;;6215145;23;20145;-60
2022/02/01 00:56:14;;;;;;;13.05;5.30;;;2.90;99.90;;;;;;6216235;23;20493;-60
2022/02/01 00:58:41;;;;;;;12.80;5.13;;;2.90;99.90;;;;;;6216467;23;20161;-60
2022/02/01 01:01:07;;;;;;;12.43;4.90;;;2.90;99.90;;;;;;6216622;23;20200;-60
2022/02/01 01:03:32;;;;;;;15.10;5.40;;;2.90;99.90;;;;;;6216158;23;20148;-60
2022/02/01 01:05:59;;;;;;;11.63;5.20;;;2.90;99.90;;;;;;6216644;23;20164;-61
2022/02/01 01:08:25;;;;;;;16.15;6.50;;;2.90;99.90;;;;;;6216490;23;20175;-61
2022/02/01 01:10:51;;;;;;;14.55;5.57;;;2.80;99.90;;;;;;6217290;23;20554;-59
2022/02/01 01:13:49;;;;;;;20.85;6.20;;;2.80;99.90;;;;;;6216498;23;20156;-60
2022/02/01 01:16:37;;;;;;;13.73;5.75;;;2.80;99.90;;;;;;6216153;23;20476;-60
2022/02/01 01:46:29;;;;;;;13.20;5.80;;;2.60;99.90;;;;;;6218646;23;20152;-60
2022/02/01 01:54:25;;;;;;;15.15;5.97;;;2.50;99.90;;;;;;6218162;23;20143;-60
2022/02/01 01:56:53;;;;;;;13.25;6.20;;;2.50;99.90;;;;;;6218559;23;20262;-59
2022/02/01 01:59:20;;;;;;;17.83;6.53;;;2.50;99.90;;;;;;6218235;23;20456;-59
2022/02/01 02:01:45;;;;;;;11.60;5.43;;;2.40;99.90;;;;;;6217930;23;20169;-59
2022/02/01 02:04:11;;;;;;;11.48;5.82;;;2.40;99.90;;;;;;6218296;23;20203;-59
2022/02/01 02:06:38;;;;;;;14.73;6.13;;;2.40;99.90;;;;;;6218008;23;20141;-60
2022/02/01 02:09:06;;;;;;;12.95;6.50;;;2.40;99.90;;;;;;6218302;23;20403;-59
2022/02/01 02:11:52;;;;;;;12.75;5.90;;;2.50;99.90;;;;;;6218447;23;20159;-58
2022/02/01 02:14:25;;;;;;;13.80;5.72;;;2.50;99.90;;;;;;6218421;23;20141;-59
2022/02/01 02:16:58;;;;;;;18.17;5.85;;;2.50;99.90;;;;;;6218365;23;20410;-60
2022/02/01 02:19:33;;;;;;;12.45;5.68;;;2.60;99.90;;;;;;6217917;23;20272;-60
2022/02/01 02:22:01;;;;;;;12.23;5.72;;;2.60;99.90;;;;;;6218178;23;20176;-60
2022/02/01 02:24:29;;;;;;;13.15;6.50;;;2.60;99.90;;;;;;6217996;23;20169;-60
2022/02/01 02:26:56;;;;;;;11.38;6.20;;;2.60;99.90;;;;;;6217764;23;20628;-60
2022/02/01 02:29:22;;;;;;;12.23;6.32;;;2.60;99.90;;;;;;6217592;23;20445;-60
2022/02/01 02:31:47;;;;;;;13.95;6.00;;;2.70;99.90;;;;;;6218064;23;20183;-60
2022/02/01 02:34:15;;;;;;;14.32;6.50;;;2.70;99.90;;;;;;6217815;23;20157;-59
2022/02/01 02:36:54;;;;;;;13.48;6.30;;;2.70;99.90;;;;;;6218183;23;20149;-60
2022/02/01 02:39:28;;;;;;;14.48;6.88;;;2.70;99.90;;;;;;6217616;23;20129;-60
2022/02/01 02:42:06;;;;;;;14.48;5.80;;;2.70;99.90;;;;;;6217925;23;20169;-60
2022/02/01 02:47:16;;;;;;;10.45;5.38;;;2.60;99.90;;;;;;6217640;23;20211;-60
2022/02/01 02:49:42;;;;;;;11.98;5.30;;;2.60;99.90;;;;;;6217498;23;20228;-60
2022/02/01 02:52:07;;;;;;;10.00;4.72;;;2.50;99.90;;;;;;6217524;23;20171;-60
2022/02/01 02:54:33;;;;;;;8.88;4.32;;;2.40;99.90;;;;;;6217443;23;20449;-60
2022/02/01 02:57:04;;;;;;;7.43;4.55;;;2.40;99.90;;;;;;6217497;23;20137;-61
2022/02/01 02:59:30;;;;;;;7.35;3.78;;;2.20;99.90;;;;;;6217556;23;20160;-60
2022/02/01 03:01:56;;;;;;;5.80;3.95;;;2.20;99.90;;;;;;6217288;23;20280;-60
2022/02/01 03:04:24;;;;;;;7.75;3.67;;;2.10;99.90;;;;;;6217324;23;20211;-60
2022/02/01 03:06:51;;;;;;;7.15;4.13;;;2.00;99.90;;;;;;6217379;23;20152;-60
2022/02/01 03:09:18;;;;;;;7.72;4.03;;;2.00;99.90;;;;;;6217273;23;20597;-60
2022/02/01 03:11:44;;;;;;;9.13;3.92;;;2.00;99.90;;;;;;6217611;23;20202;-60
2022/02/01 03:14:23;;;;;;;8.18;4.40;;;2.00;99.90;;;;;;6217178;23;20180;-60
2022/02/01 03:21:59;;;;;;;13.02;4.72;;;2.10;99.90;;;;;;6217181;23;20171;-60
2022/02/01 03:24:25;;;;;;;11.95;3.97;;;2.10;99.90;;;;;;6217463;23;20169;-60
2022/02/01 03:26:50;;;;;;;8.55;3.55;;;2.20;99.90;;;;;;6217176;23;20137;-60
2022/02/01 03:29:16;;;;;;;9.40;3.25;;;2.20;99.90;;;;;;6217287;23;20216;-60
2022/02/01 03:31:41;;;;;;;10.18;3.80;;;2.30;99.90;;;;;;6217382;23;20159;-59
2022/02/01 03:34:07;;;;;;;11.23;3.33;;;2.30;99.90;;;;;;6217218;23;20141;-60
2022/02/01 03:36:32;;;;;;;7.03;2.58;;;2.40;99.90;;;;;;6217550;23;20168;-59
2022/02/01 03:38:59;;;;;;;8.95;3.15;;;2.40;99.90;;;;;;6217317;23;20162;-59
2022/02/01 03:41:25;;;;;;;7.30;2.28;;;2.50;99.90;;;;;;6217751;23;20169;-59
2022/02/01 03:43:50;;;;;;;10.45;2.10;;;2.50;99.90;;;;;;6218098;23;20141;-59
2022/02/01 03:46:16;;;;;;;10.95;2.60;;;2.50;99.90;;;;;;6217886;23;20140;-59
2022/02/01 03:48:42;;;;;;;8.32;2.22;;;2.60;99.90;;;;;;6217251;23;20235;-60
2022/02/01 03:51:08;;;;;;;7.70;2.30;;;2.60;99.90;;;;;;6217653;23;20173;-60
2022/02/01 03:53:34;;;;;;;8.60;2.60;;;2.60;99.90;;;;;;6217538;23;20156;-60
2022/02/01 03:56:00;;;;;;;5.93;2.30;;;2.60;99.90;;;;;;6217611;23;20242;-59
2022/02/01 03:58:25;;;;;;;5.63;1.75;;;2.60;99.90;;;;;;6217099;23;20545;-60
2022/02/01 04:00:51;;;;;;;8.70;1.90;;;2.60;99.90;;;;;;6218048;23;20157;-60
2022/02/01 04:03:16;;;;;;;6.10;2.05;;;2.60;99.90;;;;;;6217439;23;20141;-60
2022/02/01 04:05:42;;;;;;;5.13;1.80;;;2.60;99.90;;;;;;6218165;23;20159;-59
2022/02/01 04:08:07;;;;;;;7.78;2.03;;;2.60;99.90;;;;;;6217249;23;20137;-59
2022/02/01 04:10:33;;;;;;;5.45;1.42;;;2.60;99.90;;;;;;6217842;23;20156;-60
2022/02/01 04:12:59;;;;;;;4.28;1.27;;;2.60;99.90;;;;;;6217782;23;20433;-60
2022/02/01 04:15:27;;;;;;;5.93;1.63;;;2.60;99.90;;;;;;6217137;23;20152;-60
2022/02/01 04:17:53;;;;;;;5.50;1.20;;;2.60;99.90;;;;;;6216892;23;20149;-60
2022/02/01 04:20:19;;;;;;;8.65;1.35;;;2.60;99.90;;;;;;6216907;23;20177;-60
2022/02/01 04:22:45;;;;;;;8.32;1.30;;;2.60;99.90;;;;;;6217277;23;20144;-59
2022/02/01 04:25:10;;;;;;;6.32;1.20;;;2.60;99.90;;;;;;6216688;23;20152;-60
2022/02/01 04:27:37;;;;;;;8.63;1.73;;;2.60;99.90;;;;;;6217065;23;20141;-59
2022/02/01 04:30:12;;;;;;;4.90;1.27;;;2.60;99.90;;;;;;6217225;23;20145;-60
2022/02/01 04:32:41;;;;;;;5.30;1.20;;;2.60;99.90;;;;;;6217125;23;20136;-60
2022/02/01 04:35:09;;;;;;;7.97;1.50;;;2.60;99.90;;;;;;6217869;23;20146;-59
2022/02/01 04:37:35;;;;;;;5.68;1.05;;;2.60;99.90;;;;;;6216815;23;20577;-60
2022/02/01 04:40:01;;;;;;;4.43;1.48;;;2.60;99.90;;;;;;6217049;23;20156;-59
2022/02/01 04:42:29;;;;;;;7.65;1.23;;;2.70;99.90;;;;;;6217666;23;20133;-60
2022/02/01 04:44:55;;;;;;;8.13;1.42;;;2.70;99.90;;;;;;6216818;23;20168;-59
2022/02/01 04:47:20;;;;;;;7.68;1.30;;;2.60;99.90;;;;;;6216811;23;20141;-59
2022/02/01 04:49:47;;;;;;;7.07;1.40;;;2.60;99.90;;;;;;6216443;23;20216;-60
2022/02/01 04:52:12;;;;;;;7.72;1.42;;;2.60;99.90;;;;;;6216561;23;20180;-59
2022/02/01 04:54:38;;;;;;;7.25;1.30;;;2.60;99.90;;;;;;6217054;23;20145;-60
2022/02/01 04:57:04;;;;;;;6.40;1.17;;;2.50;99.90;;;;;;6216924;23;20156;-60
2022/02/01 04:59:29;;;;;;;6.82;1.27;;;2.50;99.90;;;;;;6216531;23;20710;-60
2022/02/01 05:01:55;;;;;;;5.38;1.20;;;2.50;99.90;;;;;;6216545;23;20200;-60
2022/02/01 05:04:20;;;;;;;6.70;1.02;;;2.40;99.90;;;;;;6216466;23;20569;-60
2022/02/01 05:06:49;;;;;;;5.15;2.22;;;2.40;99.90;;;;;;6216756;23;20435;-61
2022/02/01 05:09:14;;;;;;;4.50;1.25;;;2.40;99.90;;;;;;6216657;23;20155;-60
2022/02/01 05:11:40;;;;;;;4.68;1.10;;;2.40;99.90;;;;;;6216587;23;20227;-61
2022/02/01 05:17:23;;;;;;;9.98;1.85;;;2.30;99.90;;;;;;6216587;23;20140;-61
2022/02/01 05:22:08;;;;;;;9.23;1.90;;;2.30;99.90;;;;;;6216982;23;20180;-60
2022/02/01 05:24:36;;;;;;;8.82;1.25;;;2.30;99.90;;;;;;6216468;23;20688;-60
2022/02/01 05:27:04;;;;;;;11.65;1.33;;;2.30;99.90;;;;;;6216488;23;20161;-60
2022/02/01 05:29:30;;;;;;;9.00;1.25;;;2.30;99.90;;;;;;6216391;23;20495;-61
2022/02/01 05:31:58;;;;;;;7.25;1.00;;;2.30;99.90;;;;;;6216151;23;20549;-60
2022/02/01 05:34:23;;;;;;;7.93;1.10;;;2.30;99.90;;;;;;6216339;23;20153;-60
2022/02/01 05:36:49;;;;;;;11.05;1.77;;;2.30;99.90;;;;;;6216038;23;20570;-60
2022/02/01 05:39:16;;;;;;;11.25;1.33;;;2.30;99.90;;;;;;6215839;23;20222;-60
2022/02/01 05:41:42;;;;;;;4.70;1.60;;;2.30;99.90;;;;;;6215896;23;20173;-60
2022/02/01 05:44:07;;;;;;;6.80;1.05;;;2.30;99.90;;;;;;6216253;23;20151;-59
2022/02/01 05:46:35;;;;;;;9.27;1.80;;;2.40;99.90;;;;;;6216057;23;20141;-60
2022/02/01 05:49:01;;;;;;;5.65;1.20;;;2.40;99.90;;;;;;6216007;23;20168;-60
2022/02/01 05:51:26;;;;;;;6.00;1.30;;;2.40;99.90;;;;;;6215882;23;20173;-60
2022/02/01 05:53:52;;;;;;;9.25;1.50;;;2.40;99.90;;;;;;6216048;23;20576;-59
2022/02/01 05:56:17;;;;;;;8.20;1.83;;;2.40;99.90;;;;;;6215794;23;20218;-60
2022/02/01 05:58:43;;;;;;;4.75;1.40;;;2.40;99.90;;;;;;6215722;23;20157;-60
2022/02/01 06:01:08;;;;;;;7.63;1.67;;;2.40;99.90;;;;;;6215661;23;20204;-60
2022/02/01 06:03:34;;;;;;;10.77;1.98;;;2.40;99.90;;;;;;6215994;23;20155;-62
2022/02/01 06:06:01;;;;;;;7.00;1.80;;;2.40;99.90;;;;;;6215772;23;20168;-62
2022/02/01 06:08:26;;;;;;;5.45;1.40;;;2.50;99.90;;;;;;6216359;23;20445;-62
2022/02/01 06:10:52;;;;;;;7.00;1.52;;;2.40;99.90;;;;;;6215826;23;20145;-62
2022/02/01 06:13:17;;;;;;;12.60;2.00;;;2.50;99.90;;;;;;6215616;23;20443;-62
2022/02/01 06:15:43;;;;;;;8.38;1.55;;;2.50;99.90;;;;;;6215993;23;20141;-62
2022/02/01 06:18:08;;;;;;;10.65;2.00;;;2.50;99.90;;;;;;6215732;23;20214;-62
2022/02/01 06:20:34;;;;;;;9.50;1.83;;;2.50;99.90;;;;;;6215948;23;20165;-62
2022/02/01 06:22:59;;;;;;;10.02;1.85;;;2.50;99.90;;;;;;6215988;23;20141;-61
2022/02/01 06:25:48;;;;;;;10.20;1.45;;;2.50;99.90;;;;;;6216437;23;20164;-62
2022/02/01 06:28:21;;;;;;;9.32;1.65;;;2.50;99.90;;;;;;6217308;23;20549;-62
2022/02/01 06:30:47;;;;;;;4.80;1.50;;;2.50;99.90;;;;;;6216600;23;20140;-62
2022/02/01 06:33:13;;;;;;;8.23;1.50;;;2.50;99.90;;;;;;6218593;23;20199;-62
2022/02/01 06:35:38;;;;;;;6.88;1.52;;;2.50;99.90;;;;;;6217915;23;20215;-62
2022/02/01 06:38:04;;;;;;;8.45;1.80;;;2.50;99.90;;;;;;6217972;23;20149;-62
2022/02/01 06:40:30;;;;;;;11.02;1.40;;;2.50;99.90;;;;;;6217586;23;20632;-62
2022/02/01 06:42:55;;;;;;;7.47;1.65;;;2.50;99.90;;;;;;6217938;23;20629;-62
2022/02/01 06:45:22;;;;;;;13.18;1.60;;;2.50;99.90;;;;;;6217902;23;20219;-62
2022/02/01 06:47:48;;;;;;;6.15;1.38;;;2.50;99.90;;;;;;6217804;23;20195;-62
2022/02/01 06:50:19;;;;;;;7.78;1.17;;;2.50;99.90;;;;;;6217360;23;20149;-61
2022/02/01 06:52:44;;;;;;;7.97;1.40;;;2.50;99.90;;;;;;6217749;23;20382;-62
2022/02/01 06:55:12;;;;;;;5.78;1.33;;;2.60;99.90;;;;;;6219293;23;20211;-62
2022/02/01 06:57:38;;;;;;;10.63;1.80;;;2.60;99.90;;;;;;6222306;23;20144;-62
2022/02/01 07:00:08;;;;;;;3.95;1.20;;;2.70;99.90;;;;;;6218784;23;20175;-62
2022/02/01 07:02:34;;;;;;;7.53;1.60;;;2.70;99.90;;;;;;6225977;23;20145;-61
2022/02/01 07:05:00;;;;;;;8.88;1.73;;;2.80;99.90;;;;;;6220727;23;20140;-61
2022/02/01 07:07:26;;;;;;;9.68;1.58;;;2.80;99.90;;;;;;6216029;23;20195;-61
2022/02/01 07:09:51;;;;;;;7.55;1.42;;;2.80;99.90;;;;;;6217507;23;20443;-61
2022/02/01 07:12:17;;;;;;;8.73;1.48;;;2.90;99.90;;;;;;6217294;23;20145;-61
2022/02/01 07:14:42;;;;;;;6.50;1.30;;;2.90;99.90;;;;;;6217760;23;20141;-61
2022/02/01 07:17:08;;;;;;;7.55;1.50;;;2.90;99.90;;;;;;6217593;23;20141;-62
2022/02/01 07:19:33;;;;;;;6.55;1.15;;;2.90;99.90;;;;;;6217280;23;20167;-62
2022/02/01 07:21:59;;;;;;;7.25;1.65;;;2.90;99.90;;;;;;6217185;23;20501;-61
2022/02/01 07:24:30;;;;;;;8.10;2.08;;;2.90;99.90;;;;;;6217365;23;20554;-62
2022/02/01 07:26:58;;;;;;;6.45;1.27;;;2.90;99.90;;;;;;6217715;23;20212;-61
2022/02/01 07:29:26;;;;;;;6.88;1.25;;;2.90;99.90;;;;;;6216480;23;20152;-62
2022/02/01 07:31:52;;;;;;;6.57;1.33;;;2.90;99.90;;;;;;6216082;23;20444;-61
2022/02/01 07:34:18;;;;;;;9.73;1.63;;;2.90;99.90;;;;;;6217547;23;20203;-61
2022/02/01 07:36:43;;;;;;;10.23;1.17;;;2.90;99.90;;;;;;6217137;23;20172;-61
2022/02/01 07:39:09;;;;;;;6.55;1.33;;;2.90;99.90;;;;;;6216899;23;20145;-62
2022/02/01 07:41:36;;;;;;;7.90;1.35;;;2.90;99.90;;;;;;6217689;23;20589;-62
2022/02/01 07:44:01;;;;;;;7.18;1.58;;;2.90;99.90;;;;;;6216866;23;20136;-62
2022/02/01 07:46:29;;;;;;;8.48;1.90;;;2.90;99.90;;;;;;6216655;23;20219;-61
2022/02/01 07:48:55;;;;;;;8.07;1.35;;;2.90;99.90;;;;;;6217431;23;20145;-61
2022/02/01 07:51:20;;;;;;;8.27;1.58;;;3.00;99.90;;;;;;6216802;23;20652;-60
2022/02/01 07:53:46;;;;;;;10.77;1.95;;;3.00;99.90;;;;;;6217214;23;20145;-61
2022/02/01 07:56:13;;;;;;;6.75;1.52;;;3.00;99.90;;;;;;6217197;23;20160;-61
2022/02/01 07:58:39;;;;;;;9.23;1.25;;;3.10;99.90;;;;;;6217506;23;20216;-61
2022/02/01 08:01:05;;;;;;;8.20;1.70;;;3.10;99.90;;;;;;6217529;23;20184;-61
2022/02/01 08:03:30;;;;;;;10.20;1.42;;;3.10;99.90;;;;;;6216763;23;20141;-62
2022/02/01 08:05:55;;;;;;;7.65;1.73;;;3.10;99.90;;;;;;6217032;23;20141;-63
2022/02/01 08:08:21;;;;;;;6.63;1.75;;;3.10;99.90;;;;;;6216695;23;20145;-62
2022/02/01 08:10:50;;;;;;;11.88;1.85;;;3.10;99.90;;;;;;6217096;23;20178;-62
2022/02/01 08:16:25;;;;;;;4.00;1.35;;;3.20;99.90;;;;;;6217290;23;20240;-62
2022/02/01 08:18:53;;;;;;;9.85;1.90;;;3.20;99.90;;;;;;6216362;23;20156;-63
2022/02/01 08:21:25;;;;;;;6.45;1.95;;;3.20;99.90;;;;;;6216868;23;20165;-62
2022/02/01 08:23:51;;;;;;;6.60;1.92;;;3.20;99.90;;;;;;6215938;23;20129;-62
2022/02/01 08:26:18;;;;;;;9.30;1.50;;;3.20;99.90;;;;;;6216509;23;20141;-63
2022/02/01 08:28:43;;;;;;;6.70;1.30;;;3.20;99.90;;;;;;6216809;23;20149;-63
2022/02/01 08:31:09;;;;;;;13.23;2.38;;;3.20;99.90;;;;;;6216439;23;20145;-63
2022/02/01 08:33:36;;;;;;;6.15;1.52;;;3.20;99.90;;;;;;6216783;23;20149;-62
2022/02/01 08:36:02;;;;;;;10.60;1.80;;;3.20;99.90;;;;;;6216530;23;20566;-63
2022/02/01 08:38:27;;;;;;;8.70;1.60;;;3.20;99.90;;;;;;6216646;23;20155;-63
2022/02/01 08:40:53;;;;;;;10.18;1.80;;;3.30;99.90;;;;;;6216342;23;20403;-62
2022/02/01 08:43:18;;;;;;;8.38;1.95;;;3.30;99.90;;;;;;6216241;23;20168;-63
2022/02/01 08:45:44;;;;;;;9.75;1.75;;;3.30;99.90;;;;;;6216467;23;20419;-63
2022/02/01 08:48:10;;;;;;;9.10;1.52;;;3.30;99.90;;;;;;6216319;23;20148;-63
2022/02/01 08:50:36;;;;;;;9.45;1.55;;;3.40;99.90;;;;;;6216709;23;20145;-63
2022/02/01 08:53:18;;;;;;;8.50;1.65;;;3.40;99.90;;;;;;6216126;23;20454;-63
2022/02/01 08:56:02;;;;;;;7.75;1.70;;;3.40;99.90;;;;;;6216286;23;20125;-63
2022/02/01 08:58:28;;;;;;;9.00;2.10;;;3.50;99.90;;;;;;6216469;23;20210;-63
2022/02/01 09:00:54;;;;;;;7.38;1.40;;;3.60;99.90;;;;;;6216369;23;20461;-63
2022/02/01 09:03:20;;;;;;;7.93;1.55;;;3.70;99.90;;;;;;6216175;23;20167;-61
2022/02/01 09:05:48;;;;;;;11.52;2.13;;;3.80;99.90;;;;;;6216264;23;20616;-61
2022/02/01 09:08:14;;;;;;;9.35;1.92;;;3.80;99.90;;;;;;6216475;23;20141;-61
2022/02/01 09:10:40;;;;;;;11.85;2.13;;;3.90;99.90;;;;;;6216253;23;20168;-61
2022/02/01 09:13:05;;;;;;;6.28;1.67;;;3.90;99.90;;;;;;6216386;23;20144;-60
2022/02/01 09:15:31;;;;;;;11.93;2.22;;;4.00;99.90;;;;;;6216295;23;20149;-61
2022/02/01 09:17:58;;;;;;;7.80;2.00;;;4.00;99.90;;;;;;6216224;23;20448;-61
2022/02/01 09:20:24;;;;;;;10.35;2.10;;;4.10;99.90;;;;;;6215958;23;20651;-61
2022/02/01 09:22:50;;;;;;;11.18;2.38;;;4.10;99.90;;;;;;6216374;23;20153;-61
2022/02/01 09:25:17;;;;;;;9.00;2.22;;;4.20;99.90;;;;;;6216916;23;20502;-63
2022/02/01 09:27:47;;;;;;;10.93;2.15;;;4.20;99.90;;;;;;6216202;23;20152;-63
2022/02/01 09:30:14;;;;;;;9.98;2.30;;;4.20;99.90;;;;;;6216582;23;20157;-63
2022/02/01 09:32:40;;;;;;;8.95;2.40;;;4.20;99.90;;;;;;6216860;23;20279;-63
2022/02/01 09:35:06;;;;;;;7.60;1.67;;;4.30;99.90;;;;;;6215929;23;20448;-63
2022/02/01 09:37:32;;;;;;;11.35;2.08;;;4.30;99.90;;;;;;6216474;23;20145;-63
2022/02/01 09:39:57;;;;;;;9.52;1.75;;;4.40;99.90;;;;;;6216123;23;20219;-63
2022/02/01 09:42:27;;;;;;;9.77;1.95;;;4.40;99.90;;;;;;6216391;23;20453;-63
2022/02/01 09:44:56;;;;;;;9.45;2.20;;;4.40;99.90;;;;;;6216516;23;20145;-62
2022/02/01 09:47:35;;;;;;;6.90;1.70;;;4.40;99.90;;;;;;6216012;23;20141;-61
2022/02/01 09:50:01;;;;;;;11.57;1.98;;;4.30;99.90;;;;;;6215887;23;20144;-61
2022/02/01 09:52:28;;;;;;;8.23;2.03;;;4.30;99.90;;;;;;6215079;23;20542;-62
2022/02/01 09:54:54;;;;;;;4.75;1.80;;;4.30;99.90;;;;;;6215861;23;20140;-62
2022/02/01 09:57:21;;;;;;;6.60;1.80;;;4.30;99.90;;;;;;6215856;23;20206;-61
2022/02/01 09:59:58;;;;;;;5.32;1.92;;;4.40;99.90;;;;;;6215825;23;20168;-62
2022/02/01 10:02:41;;;;;;;10.88;2.25;;;4.40;99.90;;;;;;6216223;23;20238;-62
2022/02/01 10:05:08;;;;;;;8.02;2.03;;;4.50;99.90;;;;;;6218305;23;20130;-62
2022/02/01 10:07:55;;;;;;;6.00;2.30;;;4.50;99.90;;;;;;6217996;23;20228;-62
2022/02/01 10:10:22;;;;;;;7.15;2.20;;;4.50;99.90;;;;;;6218044;23;20488;-62
2022/02/01 10:13:00;;;;;;;7.18;2.10;;;4.40;99.90;;;;;;6217961;23;20199;-62
2022/02/01 10:15:26;;;;;;;7.60;2.42;;;4.50;99.90;;;;;;6217964;23;20141;-62
2022/02/01 10:18:01;;;;;;;7.10;2.40;;;4.50;99.90;;;;;;6217652;23;20358;-62
2022/02/01 10:20:36;;;;;;;8.38;2.72;;;4.50;99.90;;;;;;6216571;23;20168;-62
2022/02/01 10:23:19;;;;;;;8.57;2.78;;;4.60;99.90;;;;;;6217599;23;20216;-62
2022/02/01 10:25:57;;;;;;;7.15;2.35;;;4.70;99.90;;;;;;6217985;23;20141;-62
2022/02/01 10:28:24;;;;;;;9.13;2.72;;;4.70;99.90;;;;;;6217620;23;20129;-62
2022/02/01 10:30:50;;;;;;;4.43;2.05;;;4.80;99.90;;;;;;6217884;23;20153;-62
2022/02/01 10:33:59;;;;;;;7.57;2.40;;;4.90;99.90;;;;;;6217969;23;20149;-61
2022/02/01 10:36:37;;;;;;;6.53;2.33;;;4.90;99.90;;;;;;6216307;23;20231;-61
2022/02/01 10:39:04;;;;;;;6.03;2.30;;;5.00;99.90;;;;;;6217623;23;20472;-61
2022/02/01 10:41:30;;;;;;;6.80;2.20;;;5.00;99.90;;;;;;6218250;23;20176;-62
2022/02/01 10:43:56;;;;;;;9.38;2.90;;;5.00;99.90;;;;;;6217230;23;20141;-61
2022/02/01 10:46:23;;;;;;;5.57;3.08;;;5.00;99.90;;;;;;6217869;23;20181;-63
2022/02/01 10:48:49;;;;;;;6.80;2.35;;;5.10;99.90;;;;;;6217572;23;20223;-62
2022/02/01 10:51:22;;;;;;;10.60;2.75;;;5.10;99.90;;;;;;6217579;23;20557;-62
2022/02/01 10:53:48;;;;;;;8.68;3.13;;;5.20;99.90;;;;;;6217732;23;20129;-61
2022/02/01 10:56:16;;;;;;;5.88;2.83;;;5.20;99.90;;;;;;6217465;23;20149;-62
2022/02/01 10:58:47;;;;;;;11.88;3.47;;;5.20;99.90;;;;;;6217414;23;20161;-59
2022/02/01 11:01:13;;;;;;;6.55;3.45;;;5.10;99.90;;;;;;6217454;23;20169;-61
2022/02/01 11:03:45;;;;;;;7.03;3.90;;;5.10;99.90;;;;;;6217555;23;20206;-61
2022/02/01 11:06:11;;;;;;;10.45;3.88;;;5.10;99.90;;;;;;6217333;23;20141;-59
2022/02/01 11:08:41;;;;;;;8.32;3.97;;;5.10;99.90;;;;;;6217284;23;20141;-61
2022/02/01 11:11:07;;;;;;;9.48;4.25;;;5.10;99.90;;;;;;6216456;23;20185;-62
2022/02/01 11:13:40;;;;;;;6.50;4.20;;;5.10;99.90;;;;;;6215201;23;20152;-61
2022/02/01 11:16:08;;;;;;;9.30;4.32;;;5.00;99.90;;;;;;6217438;23;20483;-62
2022/02/01 11:18:34;;;;;;;10.60;4.90;;;5.00;99.90;;;;;;6217393;23;20278;-60
2022/02/01 11:21:03;;;;;;;9.60;4.65;;;5.00;99.90;;;;;;6217391;23;20565;-61
2022/02/01 11:23:46;;;;;;;7.07;3.97;;;4.90;99.90;;;;;;6217927;23;20171;-61
2022/02/01 11:26:31;;;;;;;6.68;4.18;;;4.90;99.90;;;;;;6215921;23;20188;-60
2022/02/01 11:31:34;;;;;;;9.75;4.25;;;4.80;99.90;;;;;;6217901;23;20171;-61
2022/02/01 11:34:00;;;;;;;7.22;3.08;;;4.90;99.90;;;;;;6217124;23;20153;-61
2022/02/01 11:36:26;;;;;;;7.22;3.35;;;4.90;99.90;;;;;;6217049;23;20159;-61
2022/02/01 11:38:55;;;;;;;8.32;3.50;;;4.80;99.90;;;;;;6215736;23;20457;-61
2022/02/01 11:41:38;;;;;;;7.95;2.95;;;4.80;99.90;;;;;;6217361;23;20180;-61
2022/02/01 11:44:20;;;;;;;5.80;2.38;;;4.80;99.90;;;;;;6216968;23;20145;-61
2022/02/01 11:47:00;;;;;;;4.85;2.55;;;4.80;99.90;;;;;;6217135;23;20133;-61
2022/02/01 11:49:26;;;;;;;5.63;2.45;;;4.80;99.90;;;;;;6217660;23;20138;-62
2022/02/01 11:51:52;;;;;;;7.28;2.80;;;4.80;99.90;;;;;;6217202;23;20579;-61
2022/02/01 11:54:23;;;;;;;9.25;3.30;;;4.80;99.90;;;;;;6215477;23;20178;-62
2022/02/01 11:56:49;;;;;;;9.82;3.03;;;4.80;99.90;;;;;;6217197;23;20144;-61
2022/02/01 11:59:25;;;;;;;6.97;2.78;;;4.80;99.90;;;;;;6215994;23;20164;-61
2022/02/01 12:02:05;;;;;;;7.68;3.03;;;4.80;99.90;;;;;;6217131;23;20156;-61
2022/02/01 12:04:40;;;;;;;4.97;2.90;;;4.80;99.90;;;;;;6215859;23;20629;-60
2022/02/01 12:07:07;;;;;;;6.80;3.20;;;4.80;99.90;;;;;;6217081;23;20255;-60
2022/02/01 12:09:33;;;;;;;6.43;2.47;;;4.90;99.90;;;;;;6216955;23;20152;-61
2022/02/01 12:12:01;;;;;;;4.00;2.88;;;4.90;99.90;;;;;;6216722;23;20573;-61
2022/02/01 12:14:27;;;;;;;7.38;2.88;;;4.90;99.90;;;;;;6216894;23;20145;-60
2022/02/01 12:16:54;;;;;;;4.95;2.72;;;4.90;99.90;;;;;;6216869;23;20159;-60
2022/02/01 12:19:45;;;;;;;6.68;2.95;;;4.80;99.90;;;;;;6216679;23;20149;-60
2022/02/01 12:22:23;;;;;;;5.82;3.08;;;4.70;99.90;;;;;;6215999;23;20231;-60
2022/02/01 12:24:48;;;;;;;4.32;1.83;;;4.70;99.90;;;;;;6216828;23;20140;-61
2022/02/01 12:27:14;;;;;;;3.45;2.20;;;4.70;99.90;;;;;;6217061;23;20145;-61
2022/02/01 12:29:39;;;;;;;4.43;1.98;;;4.70;99.90;;;;;;6216902;23;20505;-61
2022/02/01 12:32:06;;;;;;;8.43;2.40;;;4.60;99.90;;;;;;6216875;23;20145;-61
2022/02/01 12:34:32;;;;;;;4.05;2.08;;;4.60;99.90;;;;;;6216887;23;20517;-60
2022/02/01 12:36:58;;;;;;;2.40;2.00;;;4.60;99.90;;;;;;6217018;23;20149;-61
2022/02/01 12:39:31;;;;;;;2.15;1.40;;;4.60;99.90;;;;;;6216406;23;20137;-61
2022/02/01 12:42:04;;;;;;;3.40;1.90;;;4.60;99.90;;;;;;6216797;23;20157;-61
2022/02/01 12:47:02;;;;;;;2.60;1.63;;;4.60;99.90;;;;;;6216891;23;20537;-61
2022/02/01 12:49:52;;;;;;;6.70;1.48;;;4.60;99.90;;;;;;6216576;23;20149;-61
2022/02/01 12:52:21;;;;;;;2.90;1.48;;;4.50;99.90;;;;;;6215818;23;20203;-61
2022/02/01 12:54:47;;;;;;;3.15;1.20;;;4.50;99.90;;;;;;6216894;23;20145;-61
2022/02/01 12:57:15;;;;;;;2.25;1.10;;;4.50;99.90;;;;;;6216522;23;20181;-61
2022/02/01 12:59:50;;;;;;;2.20;0.98;;;4.50;99.90;;;;;;6215884;23;20160;-60
2022/02/01 13:02:19;;;;;;;2.97;1.08;;;4.50;99.90;;;;;;6216280;23;20283;-61
2022/02/01 13:04:51;;;;;;;2.55;1.25;;;4.40;99.90;;;;;;6216354;23;20164;-63
2022/02/01 13:07:29;;;;;;;2.90;1.00;;;4.20;99.90;;;;;;6216110;23;20494;-62
2022/02/01 13:15:48;;;;;;;1.50;0.90;;;4.00;99.90;;;;;;6213678;23;20149;-61
2022/02/01 13:18:25;;;;;;;1.73;1.00;;;4.00;99.90;;;;;;6213937;23;20704;-61
2022/02/01 13:20:57;;;;;;;2.05;0.88;;;4.00;99.90;;;;;;6214968;23;20252;-61
2022/02/01 13:23:22;;;;;;;1.02;0.80;;;4.00;99.90;;;;;;6216408;23;20141;-61
2022/02/01 13:25:48;;;;;;;0.90;0.88;;;4.00;99.90;;;;;;6214606;23;20591;-61
2022/02/01 13:28:15;;;;;;;1.27;0.95;;;4.00;99.90;;;;;;6216257;23;20141;-61
2022/02/01 13:30:42;;;;;;;1.20;0.90;;;4.10;99.90;;;;;;6215789;23;20155;-61
2022/02/01 13:33:14;;;;;;;1.88;0.95;;;4.10;99.90;;;;;;6216221;23;20156;-61
2022/02/01 13:35:51;;;;;;;1.17;0.82;;;4.20;99.90;;;;;;6215838;23;20145;-61
2022/02/01 13:38:19;;;;;;;1.00;0.90;;;4.30;99.90;;;;;;6216470;23;20455;-62
2022/02/01 13:40:44;;;;;;;2.40;1.00;;;4.40;99.90;;;;;;6215848;23;20577;-61
2022/02/01 13:43:21;;;;;;;1.35;1.00;;;4.40;99.90;;;;;;6216355;23;20141;-61
2022/02/01 13:45:48;;;;;;;2.03;0.98;;;4.50;99.90;;;;;;6216582;23;20223;-62
2022/02/01 13:48:29;;;;;;;1.70;0.90;;;4.60;99.90;;;;;;6216631;23;20171;-61
2022/02/01 13:51:04;;;;;;;2.03;1.02;;;4.60;99.90;;;;;;6215983;23;20215;-61
2022/02/01 13:53:31;;;;;;;1.75;0.93;;;4.70;99.90;;;;;;6216055;23;20137;-61
2022/02/01 13:55:59;;;;;;;1.98;1.20;;;4.70;99.90;;;;;;6215956;23;20141;-61
2022/02/01 13:58:25;;;;;;;2.00;1.08;;;4.70;99.90;;;;;;6215801;23;20564;-62
2022/02/01 14:00:54;;;;;;;2.42;0.95;;;4.80;99.90;;;;;;6216099;23;20215;-62
2022/02/01 14:03:38;;;;;;;1.35;1.20;;;4.80;99.90;;;;;;6216043;23;20584;-62
2022/02/01 14:06:27;;;;;;;1.55;1.30;;;4.80;99.90;;;;;;6216147;23;20133;-61
2022/02/01 14:09:07;;;;;;;1.20;0.90;;;4.70;99.90;;;;;;6215250;23;20195;-62
2022/02/01 14:11:50;;;;;;;2.03;1.25;;;4.70;99.90;;;;;;6216240;23;20140;-62
2022/02/01 14:28:45;;;;;;;2.08;1.50;;;4.70;99.90;;;;;;6183595;23;20149;-62
2022/02/01 14:34:00;;;;;;;2.70;1.80;;;4.80;99.90;;;;;;6183896;23;20208;-61
2022/02/01 14:36:30;;;;;;;2.80;2.00;;;4.90;99.90;;;;;;6183687;23;20212;-61